Time;durP1;ratioP1;P1;durP2;ratioP2;P2;SDS_P1;SDS_P2;PMS_P1;PMS_P2;Temp;Humidity;BMP_temperature;BMP_pressure;BME280_temperature;BME280_humidity;BME280_pressure;Samples;Min_cycle;Max_cycle;Signal;HPM_P1;HPM_P2
2023/12/27 00:01:53;;;;;;;9.55;3.10;;;;;;;15.64;100.00;101746.75;10597833;27;20051;-80
2023/12/27 00:07:15;;;;;;;10.35;4.35;;;;;;;15.59;100.00;101749.38;10627531;27;20258;-79
2023/12/27 00:12:38;;;;;;;9.10;3.35;;;;;;;15.75;100.00;101750.44;10569625;27;20134;-80
2023/12/27 00:18:02;;;;;;;8.80;2.65;;;;;;;16.14;100.00;101744.59;10609460;27;20514;-79
2023/12/27 00:23:24;;;;;;;11.20;4.57;;;;;;;16.37;100.00;101758.97;10621904;27;20151;-80
2023/12/27 00:28:47;;;;;;;10.65;3.67;;;;;;;16.50;100.00;101755.53;10594081;27;20051;-80
2023/12/27 00:34:11;;;;;;;5.65;2.42;;;;;;;16.60;100.00;101757.41;10613208;27;20051;-81
2023/12/27 00:39:34;;;;;;;5.82;2.22;;;;;;;16.65;100.00;101745.00;10612953;27;20051;-80
2023/12/27 00:44:56;;;;;;;7.40;2.53;;;;;;;16.69;100.00;101744.13;10596978;27;20051;-83
2023/12/27 00:50:20;;;;;;;7.30;2.40;;;;;;;16.52;100.00;101751.09;10624887;27;20043;-83
2023/12/27 00:55:43;;;;;;;8.88;2.70;;;;;;;16.48;100.00;101740.38;10604084;27;20055;-82
2023/12/27 01:01:05;;;;;;;4.38;2.10;;;;;;;16.50;100.00;101743.97;10603081;27;20049;-82
2023/12/27 01:06:30;;;;;;;7.93;2.63;;;;;;;16.43;100.00;101750.13;10614683;27;20138;-80
2023/12/27 01:11:52;;;;;;;6.40;2.47;;;;;;;16.38;100.00;101750.09;10595913;27;20047;-80
2023/12/27 01:17:14;;;;;;;12.10;2.97;;;;;;;16.41;100.00;101747.44;10625075;27;20096;-80
2023/12/27 01:22:38;;;;;;;10.70;2.63;;;;;;;16.44;100.00;101747.47;10607939;27;20059;-83
2023/12/27 01:28:04;;;;;;;9.60;2.72;;;;;;;16.60;100.00;101754.75;10587850;27;20104;-83
2023/12/27 01:33:27;;;;;;;8.02;2.45;;;;;;;16.53;100.00;101750.22;10587772;27;20046;-82
2023/12/27 01:38:51;;;;;;;8.20;3.20;;;;;;;16.57;100.00;101752.03;10609122;27;20047;-82
2023/12/27 01:44:14;;;;;;;9.82;4.07;;;;;;;16.61;100.00;101753.84;10626748;27;20055;-83
2023/12/27 01:49:36;;;;;;;9.60;3.22;;;;;;;16.62;100.00;101760.06;10597960;27;20066;-84
2023/12/27 01:55:00;;;;;;;5.95;2.40;;;;;;;16.51;100.00;101757.31;10606169;27;20126;-83
2023/12/27 02:00:23;;;;;;;6.82;2.33;;;;;;;16.50;100.00;101771.50;10590391;27;20134;-82
2023/12/27 02:05:46;;;;;;;4.88;2.28;;;;;;;16.46;100.00;101768.81;10612985;27;20630;-82
2023/12/27 02:11:11;;;;;;;8.57;3.15;;;;;;;16.47;100.00;101771.50;10630152;27;20046;-82
2023/12/27 02:16:35;;;;;;;12.77;3.90;;;;;;;16.54;100.00;101762.66;10615794;27;20044;-82
2023/12/27 02:21:59;;;;;;;15.60;9.55;;;;;;;16.56;100.00;101757.34;10627506;27;20047;-83
2023/12/27 02:27:24;;;;;;;21.52;13.35;;;;;;;16.56;100.00;101749.34;10616285;27;20534;-82
2023/12/27 02:32:47;;;;;;;7.13;4.25;;;;;;;16.58;100.00;101744.91;10619792;27;20055;-83
2023/12/27 02:38:09;;;;;;;3.22;1.80;;;;;;;16.58;100.00;101742.25;10616365;27;20128;-81
2023/12/27 02:43:36;;;;;;;6.78;4.00;;;;;;;16.67;100.00;101748.56;10629593;27;20141;-82
2023/12/27 02:48:58;;;;;;;10.35;4.53;;;;;;;16.74;100.00;101744.16;10645944;27;20054;-81
2023/12/27 02:54:20;;;;;;;9.05;4.20;;;;;;;16.54;100.00;101745.78;10625841;27;20039;-82
2023/12/27 02:59:44;;;;;;;5.68;3.17;;;;;;;16.67;100.00;101737.88;10617698;27;20039;-81
2023/12/27 03:05:07;;;;;;;27.05;17.13;;;;;;;16.69;100.00;101733.47;10636857;27;20043;-82
2023/12/27 03:10:31;;;;;;;18.92;16.98;;;;;;;16.65;100.00;101722.78;10621850;27;20047;-81
2023/12/27 03:15:58;;;;;;;11.95;8.40;;;;;;;16.61;100.00;101721.84;10601040;27;20220;-81
2023/12/27 03:21:21;;;;;;;8.73;5.40;;;;;;;16.47;100.00;101726.19;10624824;27;20038;-82
2023/12/27 03:26:43;;;;;;;7.18;4.00;;;;;;;16.61;100.00;101724.53;10637959;27;20047;-81
2023/12/27 03:32:07;;;;;;;9.43;5.57;;;;;;;16.71;100.00;101726.38;10616908;27;20042;-79
2023/12/27 03:37:30;;;;;;;10.20;5.10;;;;;;;16.67;100.00;101727.22;10628635;27;20549;-80
2023/12/27 03:42:56;;;;;;;4.70;2.95;;;;;;;16.67;100.00;101713.88;10600902;27;20076;-81
2023/12/27 03:48:20;;;;;;;8.95;4.10;;;;;;;16.69;100.00;101714.78;10617289;27;20406;-79
2023/12/27 03:53:42;;;;;;;87.72;53.83;;;;;;;16.71;100.00;101717.47;10595113;27;20032;-81
2023/12/27 03:59:05;;;;;;;14.93;10.25;;;;;;;16.72;100.00;101719.28;10595033;27;20043;-80
2023/12/27 04:04:29;;;;;;;5.57;3.50;;;;;;;16.64;100.00;101727.22;10623830;27;20130;-80
2023/12/27 04:09:52;;;;;;;5.40;3.00;;;;;;;16.53;100.00;101715.56;10629784;27;20046;-80
2023/12/27 04:15:16;;;;;;;8.05;4.28;;;;;;;16.49;100.00;101712.84;10614746;27;20057;-80
2023/12/27 04:20:42;;;;;;;17.23;12.38;;;;;;;16.44;100.00;101720.81;10595119;27;20047;-82
2023/12/27 04:26:04;;;;;;;28.33;20.45;;;;;;;16.40;100.00;101719.03;10623855;27;20095;-83
2023/12/27 04:31:27;;;;;;;14.65;12.52;;;;;;;16.36;100.00;101717.22;10625721;27;20057;-82
2023/12/27 04:36:51;;;;;;;17.30;12.05;;;;;;;16.33;100.00;101719.88;10595490;27;20035;-83
2023/12/27 04:42:13;;;;;;;25.08;17.92;;;;;;;16.39;100.00;101724.34;10598387;27;20154;-82
2023/12/27 04:47:36;;;;;;;74.72;62.17;;;;;;;16.41;100.00;101725.25;10619491;27;20111;-83
2023/12/27 04:53:00;;;;;;;33.42;26.20;;;;;;;16.44;100.00;101723.50;10636198;27;20047;-82
2023/12/27 04:58:22;;;;;;;25.13;15.82;;;;;;;16.33;100.00;101727.88;10604525;27;20431;-84
2023/12/27 05:03:45;;;;;;;32.25;20.80;;;;;;;16.29;100.00;101734.91;10602471;27;20099;-83
2023/12/27 05:09:09;;;;;;;11.43;7.60;;;;;;;16.37;100.00;101744.75;10640490;27;20102;-82
2023/12/27 05:14:32;;;;;;;12.75;8.57;;;;;;;16.41;100.00;101735.91;10602992;27;20047;-81
2023/12/27 05:19:55;;;;;;;17.48;15.32;;;;;;;16.45;100.00;101737.72;10607360;27;20062;-82
2023/12/27 05:25:20;;;;;;;15.80;12.18;;;;;;;16.50;100.00;101735.97;10615282;27;20051;-82
2023/12/27 05:30:42;;;;;;;18.42;13.70;;;;;;;16.52;100.00;101736.88;10656217;27;20425;-81
2023/12/27 05:36:06;;;;;;;5.97;4.53;;;;;;;16.50;100.00;101731.53;10607259;27;20061;-81
2023/12/27 05:41:30;;;;;;;7.80;5.20;;;;;;;16.53;100.00;101728.00;10618331;27;20062;-81
2023/12/27 05:46:52;;;;;;;21.35;15.85;;;;;;;16.48;100.00;101743.06;10602746;27;20478;-81
2023/12/27 05:52:15;;;;;;;19.52;13.43;;;;;;;16.50;100.00;101744.84;10621756;27;20065;-81
2023/12/27 05:57:41;;;;;;;16.33;11.20;;;;;;;16.63;100.00;101753.88;10620859;27;20063;-80
2023/12/27 06:03:04;;;;;;;10.63;6.20;;;;;;;16.74;100.00;101762.81;10603817;27;20046;-80
2023/12/27 06:08:26;;;;;;;6.78;3.88;;;;;;;16.82;100.00;101776.19;10588700;27;20051;-81
2023/12/27 06:13:50;;;;;;;13.85;10.18;;;;;;;16.76;100.00;101786.84;10618293;27;20491;-81
2023/12/27 06:19:13;;;;;;;29.35;20.77;;;;;;;16.84;100.00;101793.13;10597180;27;20518;-80
2023/12/27 06:24:36;;;;;;;31.33;22.50;;;;;;;17.13;100.00;101789.72;10622723;27;20073;-81
2023/12/27 06:30:00;;;;;;;21.42;16.08;;;;;;;17.41;100.00;101804.09;10616308;27;20046;-82
2023/12/27 06:35:22;;;;;;;39.40;34.00;;;;;;;17.81;100.00;101801.59;10616056;27;20047;-83
2023/12/27 06:40:45;;;;;;;43.88;37.15;;;;;;;18.05;100.00;101812.34;10597511;27;20041;-83
2023/12/27 06:46:09;;;;;;;29.55;25.00;;;;;;;18.04;100.00;101818.59;10594035;27;20537;-83
2023/12/27 06:51:32;;;;;;;15.85;13.20;;;;;;;18.40;100.00;101822.19;10609016;27;20092;-82
2023/12/27 06:56:55;;;;;;;10.43;8.68;;;;;;;18.68;100.00;101816.00;10590449;27;20043;-82
2023/12/27 07:02:19;;;;;;;13.52;11.13;;;;;;;18.83;100.00;101813.31;10598134;27;20054;-83
2023/12/27 07:07:41;;;;;;;17.45;13.52;;;;;;;18.94;100.00;101819.53;10605245;27;20045;-82
2023/12/27 07:13:04;;;;;;;15.50;13.38;;;;;;;19.33;100.00;101825.66;10588369;27;20047;-82
2023/12/27 07:18:28;;;;;;;14.93;11.55;;;;;;;19.74;100.00;101829.09;10615381;27;20487;-82
2023/12/27 07:23:50;;;;;;;15.18;13.48;;;;;;;20.32;100.00;101836.78;10592836;27;20050;-85
2023/12/27 07:29:13;;;;;;;11.70;8.07;;;;;;;20.50;100.00;101828.63;10593888;27;20123;-83
2023/12/27 07:34:37;;;;;;;12.52;8.00;;;;;;;21.05;100.00;101842.44;10590060;27;20039;-84
2023/12/27 07:40:00;;;;;;;61.92;40.85;;;;;;;22.63;100.00;101842.16;10605604;27;20062;-83
2023/12/27 07:45:22;;;;;;;21.38;15.55;;;;;;;24.42;100.00;101833.09;10577292;27;20061;-84
2023/12/27 07:50:47;;;;;;;27.92;24.55;;;;;;;26.32;100.00;101846.69;10613488;27;20083;-84
2023/12/27 07:56:12;;;;;;;66.50;59.40;;;;;;;28.84;100.00;101845.38;10606562;27;20081;-84
2023/12/27 08:01:35;;;;;;;112.38;100.97;;;;;;;26.61;100.00;101842.13;10607984;27;20049;-83
2023/12/27 08:07:00;;;;;;;148.80;133.15;;;;;;;24.54;100.00;101848.13;10633886;27;20043;-82
2023/12/27 08:12:23;;;;;;;97.43;87.05;;;;;;;23.66;100.00;101850.13;10631228;27;20039;-84
2023/12/27 08:17:46;;;;;;;44.03;38.30;;;;;;;23.62;100.00;101862.81;10623350;27;20043;-84
2023/12/27 08:23:12;;;;;;;47.55;41.78;;;;;;;23.87;100.00;101863.16;10616552;27;20050;-83
2023/12/27 08:28:35;;;;;;;90.00;81.18;;;;;;;24.07;100.00;101868.13;10613484;27;20062;-82
2023/12/27 08:33:59;;;;;;;133.95;120.28;;;;;;;23.75;100.00;101861.63;10609244;27;20062;-81
2023/12/27 08:39:23;;;;;;;76.35;68.60;;;;;;;23.49;100.00;101857.69;10587416;27;20139;-82
2023/12/27 08:44:45;;;;;;;8.75;6.63;;;;;;;23.34;100.00;101861.53;10583071;27;20137;-83
2023/12/27 08:50:09;;;;;;;7.57;5.10;;;;;;;23.64;100.00;101863.63;10573608;27;20044;-81
2023/12/27 08:55:33;;;;;;;23.30;20.80;;;;;;;24.37;100.00;101855.75;10577434;27;20038;-81
2023/12/27 09:00:58;;;;;;;31.33;28.02;;;;;;;25.37;100.00;101853.16;10603541;27;20051;-81
2023/12/27 09:06:20;;;;;;;92.25;82.40;;;;;;;26.05;97.41;101847.56;10590688;27;20066;-82
2023/12/27 09:11:45;;;;;;;26.63;21.25;;;;;;;25.60;97.54;101852.53;10573888;27;20098;-82
2023/12/27 09:17:08;;;;;;;9.20;7.60;;;;;;;25.75;100.00;101850.25;10582040;27;20052;-82
2023/12/27 09:22:30;;;;;;;10.93;8.23;;;;;;;25.53;100.00;101849.09;10560301;27;20501;-80
2023/12/27 09:27:55;;;;;;;10.13;6.72;;;;;;;25.60;100.00;101849.84;10561149;27;20043;-83
2023/12/27 09:33:17;;;;;;;14.98;10.63;;;;;;;25.79;100.00;101845.66;10581454;27;20046;-85
2023/12/27 09:38:40;;;;;;;73.57;24.52;;;;;;;25.41;100.00;101839.50;10583076;27;20043;-81
2023/12/27 09:44:08;;;;;;;10.30;6.30;;;;;;;25.22;100.00;101830.13;10578814;27;20100;-81
2023/12/27 09:49:32;;;;;;;6.63;5.18;;;;;;;25.36;100.00;101829.75;10602331;27;20111;-81
2023/12/27 09:54:55;;;;;;;4.28;2.97;;;;;;;25.36;100.00;101824.34;10560607;27;20571;-82
2023/12/27 10:00:24;;;;;;;5.28;2.45;;;;;;;25.01;100.00;101812.69;10581476;27;20035;-83
2023/12/27 10:05:57;;;;;;;3.95;2.50;;;;;;;24.78;100.00;101808.78;10550594;27;20062;-81
2023/12/27 10:11:25;;;;;;;6.93;4.93;;;;;;;24.76;100.00;101805.25;10584657;27;20130;-82
2023/12/27 10:16:53;;;;;;;4.45;3.75;;;;;;;24.74;100.00;101807.13;10558680;28;20452;-81
2023/12/27 10:22:18;;;;;;;2.70;1.98;;;;;;;24.60;100.00;101794.88;10568232;27;20053;-83
2023/12/27 10:27:40;;;;;;;4.88;2.53;;;;;;;24.51;100.00;101792.38;10584101;27;20043;-83
2023/12/27 10:33:05;;;;;;;4.60;3.20;;;;;;;24.75;100.00;101781.84;10582474;27;20117;-83
2023/12/27 10:38:28;;;;;;;4.25;1.73;;;;;;;24.76;100.00;101781.81;10600802;27;20368;-83
2023/12/27 10:43:54;;;;;;;4.65;2.28;;;;;;;24.81;100.00;101779.03;10575301;27;20043;-81
2023/12/27 10:49:25;;;;;;;3.03;1.52;;;;;;;24.99;98.82;101775.84;10597343;27;20058;-85
2023/12/27 10:54:52;;;;;;;2.47;1.20;;;;;;;25.58;87.71;101766.00;10546477;27;20055;-82
2023/12/27 11:00:16;;;;;;;6.20;2.22;;;;;;;25.92;81.28;101765.84;10586800;28;20039;-82
2023/12/27 11:05:41;;;;;;;3.58;1.63;;;;;;;27.80;63.37;101762.75;10596067;27;20047;-82
2023/12/27 11:11:06;;;;;;;2.60;1.60;;;;;;;27.58;56.67;101750.03;10569481;28;20051;-83
2023/12/27 11:16:34;;;;;;;4.63;2.08;;;;;;;27.45;56.15;101746.00;10600161;27;20079;-85
2023/12/27 11:22:03;;;;;;;4.47;1.50;;;;;;;26.98;57.39;101747.78;10591953;27;20036;-85
2023/12/27 11:27:27;;;;;;;3.58;1.80;;;;;;;26.68;61.17;101735.31;10594721;27;20050;-84
2023/12/27 11:32:49;;;;;;;3.55;1.63;;;;;;;28.25;52.91;101731.03;10568949;27;20530;-80
2023/12/27 11:38:19;;;;;;;2.05;1.40;;;;;;;28.74;49.98;101729.84;10568779;27;20067;-83
2023/12/27 11:43:56;;;;;;;5.00;1.55;;;;;;;26.80;54.45;101727.63;10606317;27;20075;-79
2023/12/27 11:49:20;;;;;;;3.70;2.05;;;;;;;25.72;67.06;101731.31;10567781;27;20051;-83
2023/12/27 11:54:44;;;;;;;4.13;1.60;;;;;;;25.56;73.91;101729.97;10634728;27;20133;-84
2023/12/27 12:00:08;;;;;;;3.10;1.50;;;;;;;25.82;73.10;101729.19;10578989;27;20056;-82
2023/12/27 12:05:49;;;;;;;3.40;1.70;;;;;;;26.14;72.44;101738.94;10589481;27;20039;-85
2023/12/27 12:11:15;;;;;;;;;;;;;;;25.75;74.60;101738.44;10605387;27;20495;-89
2023/12/27 12:16:39;;;;;;;2.75;1.52;;;;;;;25.10;74.81;101752.09;10595025;27;19972;-80
2023/12/27 12:22:03;;;;;;;3.25;1.45;;;;;;;24.63;77.46;101751.56;10590964;27;20042;-89
2023/12/27 12:27:29;;;;;;;5.57;2.20;;;;;;;24.52;78.23;101769.84;10606232;27;20043;-87
2023/12/27 12:32:54;;;;;;;4.95;1.80;;;;;;;24.49;77.63;101769.94;10581180;27;20051;-85
2023/12/27 12:38:18;;;;;;;3.70;1.70;;;;;;;24.35;78.17;101761.28;10584604;27;20293;-83
2023/12/27 12:43:43;;;;;;;5.60;2.90;;;;;;;24.21;80.41;101767.06;10603280;27;20079;-85
2023/12/27 12:49:06;;;;;;;5.68;1.90;;;;;;;24.10;82.53;101771.78;10593316;27;20056;-85
2023/12/27 12:54:28;;;;;;;5.97;2.25;;;;;;;23.97;87.20;101774.78;10594433;27;20106;-88
2023/12/27 12:59:52;;;;;;;5.55;2.58;;;;;;;23.68;92.72;101787.16;10586944;27;20122;-86
2023/12/27 13:05:15;;;;;;;8.40;3.95;;;;;;;23.44;97.42;101782.25;10604159;27;20039;-85
2023/12/27 13:10:38;;;;;;;8.77;4.00;;;;;;;23.25;100.00;101794.31;10556450;27;20131;-82
2023/12/27 13:16:02;;;;;;;7.97;6.28;;;;;;;23.08;100.00;101793.78;10572042;27;20561;-84
2023/12/27 13:21:25;;;;;;;13.48;4.97;;;;;;;22.82;100.00;101781.72;10598906;27;20047;-80
2023/12/27 13:26:49;;;;;;;5.20;3.85;;;;;;;22.58;100.00;101796.44;10615752;27;20051;-86
2023/12/27 13:32:13;;;;;;;7.55;5.15;;;;;;;22.56;100.00;101800.09;10603215;27;20334;-86
2023/12/27 13:37:35;;;;;;;6.90;3.75;;;;;;;22.47;100.00;101802.94;10600990;27;20057;-81
2023/12/27 13:42:58;;;;;;;12.02;9.57;;;;;;;22.32;100.00;101800.53;10602417;27;20040;-82
2023/12/27 13:48:22;;;;;;;3.78;2.30;;;;;;;22.05;100.00;101797.34;10599954;27;20055;-83
2023/12/27 13:53:44;;;;;;;4.43;2.38;;;;;;;21.72;100.00;101806.75;10595648;27;20051;-89
2023/12/27 13:59:09;;;;;;;14.60;12.73;;;;;;;21.45;100.00;101797.25;10601194;27;20051;-83
2023/12/27 14:04:33;;;;;;;6.00;3.42;;;;;;;21.37;100.00;101803.63;10593121;27;20383;-80
2023/12/27 14:09:55;;;;;;;7.50;2.60;;;;;;;21.16;100.00;101809.22;10573398;27;20384;-85
2023/12/27 14:15:18;;;;;;;13.10;9.38;;;;;;;20.97;100.00;101808.50;10603853;27;20047;-82
2023/12/27 14:20:43;;;;;;;11.63;9.90;;;;;;;20.83;100.00;101819.38;10587815;27;20038;-85
2023/12/27 14:26:05;;;;;;;8.10;5.60;;;;;;;20.75;100.00;101812.28;10578642;27;20047;-88
2023/12/27 14:31:30;;;;;;;8.30;5.05;;;;;;;20.68;100.00;101816.81;10584493;27;20114;-85
2023/12/27 14:36:56;;;;;;;11.38;3.28;;;;;;;20.60;100.00;101818.72;10573457;27;20119;-85
2023/12/27 14:42:19;;;;;;;5.35;2.38;;;;;;;20.40;100.00;101826.94;10575706;27;20146;-82
2023/12/27 14:47:42;;;;;;;6.28;2.00;;;;;;;20.16;100.00;101835.09;10583297;27;20043;-92
2023/12/27 14:53:06;;;;;;;5.85;2.20;;;;;;;19.94;100.00;101837.03;10579451;27;20100;-82
2023/12/27 14:58:29;;;;;;;7.22;2.70;;;;;;;19.83;100.00;101849.59;10624526;27;20134;-84
2023/12/27 15:03:55;;;;;;;5.28;3.22;;;;;;;19.75;100.00;101843.41;10594578;27;20407;-84
2023/12/27 15:09:22;;;;;;;10.57;3.33;;;;;;;19.66;100.00;101847.00;10614173;27;20047;-83
2023/12/27 15:14:44;;;;;;;7.60;3.30;;;;;;;19.59;100.00;101847.03;10578900;27;20050;-82
2023/12/27 15:20:09;;;;;;;9.57;3.72;;;;;;;19.48;100.00;101847.09;10586140;27;20050;-86
2023/12/27 15:25:35;;;;;;;7.63;3.95;;;;;;;19.53;100.00;101849.72;10633751;27;20042;-84
2023/12/27 15:30:58;;;;;;;9.45;3.83;;;;;;;19.52;100.00;101855.97;10603470;27;20051;-86
2023/12/27 15:36:21;;;;;;;16.27;9.75;;;;;;;19.55;100.00;101862.25;10613018;27;20055;-87
2023/12/27 15:41:46;;;;;;;32.83;24.73;;;;;;;19.56;100.00;101858.63;10593172;27;20121;-82
2023/12/27 15:47:09;;;;;;;22.08;19.17;;;;;;;19.52;100.00;101870.28;10596536;27;20070;-82
2023/12/27 15:52:31;;;;;;;21.88;19.10;;;;;;;19.55;100.00;101883.66;10602860;27;20097;-79
2023/12/27 15:57:55;;;;;;;30.60;24.58;;;;;;;19.60;100.00;101880.97;10595647;27;20058;-80
2023/12/27 16:03:18;;;;;;;19.60;17.50;;;;;;;19.68;100.00;101887.19;10604638;27;20124;-81
2023/12/27 16:08:43;;;;;;;14.88;12.38;;;;;;;19.65;100.00;101896.13;10578577;27;20491;-87
2023/12/27 16:14:08;;;;;;;14.85;13.38;;;;;;;19.60;100.00;101895.25;10592420;27;20303;-88
2023/12/27 16:19:33;;;;;;;6.47;5.07;;;;;;;19.50;100.00;101902.41;10605676;27;20049;-86
2023/12/27 16:24:56;;;;;;;7.13;4.10;;;;;;;19.44;100.00;101910.44;10610056;27;20660;-83
2023/12/27 16:30:20;;;;;;;12.27;11.07;;;;;;;19.29;100.00;101904.25;10553409;27;20039;-83
2023/12/27 16:35:43;;;;;;;12.18;9.75;;;;;;;19.03;100.00;101913.16;10595543;27;20047;-81
2023/12/27 16:41:05;;;;;;;26.77;23.92;;;;;;;18.72;100.00;101914.06;10620175;27;20118;-81
2023/12/27 16:46:30;;;;;;;20.23;17.50;;;;;;;18.39;100.00;101916.66;10576574;27;20055;-85
2023/12/27 16:51:53;;;;;;;30.15;26.95;;;;;;;18.10;100.00;101920.16;10566842;27;20043;-84
2023/12/27 16:57:15;;;;;;;22.10;16.88;;;;;;;17.90;100.00;101928.09;10604480;27;20070;-79
2023/12/27 17:02:39;;;;;;;51.95;39.13;;;;;;;17.80;100.00;101933.38;10620837;27;20068;-80
2023/12/27 17:08:02;;;;;;;27.45;22.80;;;;;;;17.60;100.00;101938.59;10581637;27;20051;-78
2023/12/27 17:13:25;;;;;;;21.08;17.40;;;;;;;17.53;100.00;101937.66;10589826;27;20039;-78
2023/12/27 17:18:49;;;;;;;20.08;17.35;;;;;;;17.34;100.00;101941.09;10585499;27;20495;-79
2023/12/27 17:24:13;;;;;;;13.13;8.50;;;;;;;17.18;100.00;101952.56;10604521;27;20047;-82
2023/12/27 17:29:36;;;;;;;26.00;20.33;;;;;;;17.16;100.00;101970.31;10588015;27;20066;-82
2023/12/27 17:35:00;;;;;;;20.83;10.95;;;;;;;17.17;100.00;101980.13;10602359;27;20039;-87
2023/12/27 17:40:22;;;;;;;17.60;12.60;;;;;;;17.22;100.00;101977.47;10597029;27;20051;-88
2023/12/27 17:45:45;;;;;;;19.98;13.38;;;;;;;17.27;100.00;101975.75;10584169;27;20051;-88
2023/12/27 17:51:09;;;;;;;19.02;12.20;;;;;;;17.40;100.00;101989.19;10600977;27;20462;-84
2023/12/27 17:56:32;;;;;;;18.58;10.18;;;;;;;17.55;100.00;101985.75;10603606;27;20051;-81
2023/12/27 18:01:54;;;;;;;15.15;11.23;;;;;;;17.72;100.00;101994.78;10591280;27;20062;-85
2023/12/27 18:07:18;;;;;;;19.35;13.85;;;;;;;17.80;100.00;101995.72;10567637;27;20048;-84
2023/12/27 18:12:41;;;;;;;43.88;39.40;;;;;;;17.78;100.00;102000.19;10588832;27;20036;-82
2023/12/27 18:18:03;;;;;;;23.73;18.85;;;;;;;17.71;100.00;102005.47;10620212;27;20381;-83
2023/12/27 18:23:28;;;;;;;39.70;35.33;;;;;;;17.47;100.00;102008.81;10607210;27;20191;-85
2023/12/27 18:28:50;;;;;;;48.00;36.13;;;;;;;17.27;100.00;102019.34;10595039;27;20047;-85
2023/12/27 18:34:12;;;;;;;55.42;49.83;;;;;;;17.07;100.00;102020.94;10605881;27;20046;-84
2023/12/27 18:39:37;;;;;;;69.10;62.00;;;;;;;16.85;100.00;102021.63;10584184;27;20047;-87
2023/12/27 18:45:01;;;;;;;42.80;37.25;;;;;;;16.64;100.00;102025.84;10590970;27;20186;-85
2023/12/27 18:50:24;;;;;;;20.30;16.90;;;;;;;16.54;100.00;102031.03;10611600;27;20043;-86
2023/12/27 18:55:49;;;;;;;17.63;11.68;;;;;;;16.58;100.00;102039.09;10599300;27;20039;-81
2023/12/27 19:01:13;;;;;;;24.48;13.73;;;;;;;16.66;100.00;102049.88;10586378;27;20364;-86
2023/12/27 19:06:37;;;;;;;48.92;41.60;;;;;;;16.48;100.00;102053.16;10599399;27;20049;-84
2023/12/27 19:12:03;;;;;;;19.65;14.98;;;;;;;16.39;100.00;102061.06;10609303;27;20046;-84
2023/12/27 19:17:27;;;;;;;20.05;12.00;;;;;;;16.14;100.00;102069.63;10606918;27;20058;-86
2023/12/27 19:22:52;;;;;;;23.70;11.45;;;;;;;16.07;100.00;102070.41;10620866;27;20557;-85
2023/12/27 19:28:16;;;;;;;14.25;7.97;;;;;;;16.07;100.00;102067.75;10587344;27;20055;-84
2023/12/27 19:33:39;;;;;;;29.23;19.30;;;;;;;16.14;100.00;102074.94;10628331;27;20050;-84
2023/12/27 19:39:03;;;;;;;17.02;9.55;;;;;;;16.05;100.00;102074.81;10633629;27;20070;-84
2023/12/27 19:44:27;;;;;;;15.75;9.55;;;;;;;15.87;100.00;102081.66;10620493;27;20050;-86
2023/12/27 19:49:50;;;;;;;21.55;13.75;;;;;;;16.08;100.00;102088.19;10642863;27;20135;-83
2023/12/27 19:55:13;;;;;;;25.50;21.52;;;;;;;16.50;100.00;102086.09;10637824;27;20091;-83
2023/12/27 20:00:38;;;;;;;21.30;13.50;;;;;;;16.73;100.00;102094.41;10608998;27;20115;-83
2023/12/27 20:06:02;;;;;;;29.83;18.85;;;;;;;16.84;100.00;102090.09;10599070;27;20538;-84
2023/12/27 20:11:25;;;;;;;63.58;31.70;;;;;;;16.90;100.00;102091.91;10606605;27;20489;-83
2023/12/27 20:16:49;;;;;;;42.30;22.90;;;;;;;16.88;100.00;102091.00;10594272;27;20047;-83
2023/12/27 20:22:12;;;;;;;21.33;14.07;;;;;;;16.84;100.00;102089.19;10607012;27;20035;-84
2023/12/27 20:27:34;;;;;;;12.57;10.38;;;;;;;16.79;100.00;102093.59;10600856;27;20071;-84
2023/12/27 20:32:58;;;;;;;7.15;4.85;;;;;;;16.64;100.00;102100.53;10593491;27;20047;-85
2023/12/27 20:38:21;;;;;;;50.65;34.13;;;;;;;16.56;100.00;102096.81;10602963;27;20506;-84
2023/12/27 20:43:44;;;;;;;37.83;23.23;;;;;;;16.45;100.00;102109.13;10592933;27;20498;-84
2023/12/27 20:49:11;;;;;;;17.95;10.15;;;;;;;16.41;100.00;102107.28;10606131;27;20059;-82
2023/12/27 20:54:34;;;;;;;16.90;8.48;;;;;;;16.27;100.00;102108.88;10604095;27;20129;-78
2023/12/27 20:59:56;;;;;;;18.73;11.25;;;;;;;16.06;100.00;102108.56;10590923;27;20104;-80
2023/12/27 21:05:20;;;;;;;28.27;18.70;;;;;;;15.83;100.00;102095.78;10558911;27;20139;-83
2023/12/27 21:10:43;;;;;;;13.20;6.60;;;;;;;15.79;100.00;102101.06;10592650;27;20043;-83
2023/12/27 21:16:17;;;;;;;10.73;6.30;;;;;;;15.71;100.00;102098.28;10577221;27;20043;-83
2023/12/27 21:21:44;;;;;;;50.75;41.28;;;;;;;15.76;100.00;102093.00;10607956;27;20039;-84
2023/12/27 21:27:06;;;;;;;28.92;20.52;;;;;;;15.69;100.00;102099.09;10610251;27;20047;-83
2023/12/27 21:32:29;;;;;;;40.95;35.20;;;;;;;15.49;100.00;102099.63;10628115;27;20050;-82
2023/12/27 21:37:53;;;;;;;38.05;32.13;;;;;;;15.34;100.00;102099.38;10605414;27;20122;-82
2023/12/27 21:43:15;;;;;;;46.00;34.30;;;;;;;15.26;100.00;102090.38;10605418;27;20054;-83
2023/12/27 21:48:38;;;;;;;64.03;52.78;;;;;;;15.15;100.00;102086.63;10618291;27;20055;-82
2023/12/27 21:54:02;;;;;;;43.28;37.45;;;;;;;15.16;100.00;102088.44;10645864;27;20137;-83
2023/12/27 21:59:25;;;;;;;19.00;15.65;;;;;;;15.40;100.00;102094.19;10560360;28;20399;-83
2023/12/27 22:04:47;;;;;;;21.02;16.60;;;;;;;15.31;100.00;102099.31;10575818;27;20140;-82
2023/12/27 22:10:11;;;;;;;24.08;16.48;;;;;;;15.23;100.00;102100.06;10588738;27;20059;-84
2023/12/27 22:15:35;;;;;;;20.05;8.20;;;;;;;15.04;100.00;102097.06;10588427;27;20042;-83
2023/12/27 22:20:59;;;;;;;25.83;18.40;;;;;;;15.09;100.00;102100.72;10624499;27;20054;-85
2023/12/27 22:26:23;;;;;;;25.02;17.48;;;;;;;15.23;100.00;102105.41;10632081;27;20057;-83
2023/12/27 22:31:46;;;;;;;15.18;9.13;;;;;;;15.19;100.00;102098.22;10603711;27;20046;-84
2023/12/27 22:37:09;;;;;;;17.13;7.57;;;;;;;15.30;100.00;102109.94;10615171;27;20054;-83
2023/12/27 22:42:33;;;;;;;10.65;4.50;;;;;;;15.40;100.00;102109.25;10604680;27;20043;-83
2023/12/27 22:47:56;;;;;;;12.77;6.20;;;;;;;15.65;100.00;102108.81;10603018;28;20051;-83
2023/12/27 22:53:18;;;;;;;10.48;6.32;;;;;;;15.54;100.00;102105.09;10589604;28;20039;-84
2023/12/27 22:58:44;;;;;;;10.93;4.90;;;;;;;15.34;100.00;102111.81;10574368;27;20049;-84
2023/12/27 23:04:07;;;;;;;9.27;3.10;;;;;;;15.45;100.00;102112.88;10602862;28;20049;-84
2023/12/27 23:09:30;;;;;;;9.60;3.85;;;;;;;15.49;100.00;102110.28;10588065;27;20043;-83
2023/12/27 23:14:55;;;;;;;7.05;3.50;;;;;;;15.59;100.00;102116.72;10642358;27;20050;-84
2023/12/27 23:20:18;;;;;;;6.72;3.78;;;;;;;15.59;100.00;102119.38;10601813;27;20050;-84
2023/12/27 23:25:45;;;;;;;9.30;3.90;;;;;;;15.44;100.00;102121.72;10611025;27;20051;-81
2023/12/27 23:31:09;;;;;;;8.77;3.78;;;;;;;15.55;100.00;102117.53;10608851;27;20548;-83
2023/12/27 23:36:32;;;;;;;11.27;7.10;;;;;;;15.58;100.00;102119.34;10641885;27;20043;-83
2023/12/27 23:41:55;;;;;;;7.85;3.58;;;;;;;15.52;100.00;102120.09;10619955;27;20055;-83
2023/12/27 23:47:19;;;;;;;7.03;3.95;;;;;;;15.38;100.00;102137.59;10595217;27;20054;-84
2023/12/27 23:52:41;;;;;;;8.70;3.97;;;;;;;15.07;100.00;102141.44;10645972;27;20520;-84
2023/12/27 23:58:04;;;;;;;6.75;2.67;;;;;;;15.45;100.00;102147.47;10629229;27;20138;-84
